Time;durP1;ratioP1;P1;durP2;ratioP2;P2;SDS_P1;SDS_P2;PMS_P1;PMS_P2;Temp;Humidity;BMP_temperature;BMP_pressure;BME280_temperature;BME280_humidity;BME280_pressure;Samples;Min_cycle;Max_cycle;Signal;HPM_P1;HPM_P2
2023/03/09 00:00:45;;;;;;;;;;;2.90;91.30;;;;;;5097712;28;19950;-34
2023/03/09 00:03:15;;;;;;;;;;;2.90;91.20;;;;;;5097733;28;20003;-35
2023/03/09 00:05:42;;;;;;;;;;;2.90;91.20;;;;;;5097784;28;19912;-35
2023/03/09 00:08:07;;;;;;;;;;;2.90;91.30;;;;;;5097637;28;19912;-34
2023/03/09 00:10:33;;;;;;;;;;;2.90;91.30;;;;;;5097458;28;19916;-35
2023/03/09 00:12:58;;;;;;;;;;;3.00;91.30;;;;;;5097553;28;19916;-34
2023/03/09 00:15:24;;;;;;;;;;;2.90;91.20;;;;;;5097773;28;20010;-33
2023/03/09 00:17:50;;;;;;;;;;;2.90;91.10;;;;;;5097628;28;19912;-34
2023/03/09 00:20:18;;;;;;;;;;;2.90;91.10;;;;;;5097584;28;19912;-40
2023/03/09 00:22:48;;;;;;;;;;;2.90;91.20;;;;;;5097614;28;20322;-34
2023/03/09 00:25:13;;;;;;;;;;;2.90;91.20;;;;;;5097640;28;20383;-34
2023/03/09 00:27:40;;;;;;;;;;;2.90;91.20;;;;;;5097335;28;19920;-32
2023/03/09 00:30:06;;;;;;;;;;;2.90;91.10;;;;;;5097320;28;19965;-34
2023/03/09 00:32:31;;;;;;;;;;;2.90;91.10;;;;;;5097405;28;19920;-35
2023/03/09 00:34:57;;;;;;;;;;;2.90;91.10;;;;;;5097595;28;19912;-34
2023/03/09 00:37:22;;;;;;;;;;;2.90;91.10;;;;;;5097430;28;19919;-35
2023/03/09 00:39:48;;;;;;;;;;;2.90;91.00;;;;;;5097413;28;20337;-34
2023/03/09 00:42:14;;;;;;;;;;;2.80;91.00;;;;;;5097753;28;20043;-34
2023/03/09 00:44:39;;;;;;;;;;;2.80;91.00;;;;;;5097345;28;20011;-34
2023/03/09 00:47:05;;;;;;;;;;;2.80;91.00;;;;;;5093344;28;19912;-35
2023/03/09 00:49:30;;;;;;;;;;;2.70;90.90;;;;;;5094111;28;19916;-35
2023/03/09 00:51:56;;;;;;;;;;;2.70;90.90;;;;;;5094194;28;19912;-33
2023/03/09 00:54:22;;;;;;;;;;;2.70;90.90;;;;;;5093975;28;20272;-35
2023/03/09 00:56:47;;;;;;;;;;;2.70;91.00;;;;;;5094036;28;19916;-31
2023/03/09 00:59:13;;;;;;;;;;;2.70;91.00;;;;;;5094180;28;20381;-35
2023/03/09 01:01:38;;;;;;;;;;;2.70;90.90;;;;;;5094026;28;19912;-33
2023/03/09 01:04:04;;;;;;;;;;;2.70;90.90;;;;;;5093927;28;19919;-36
2023/03/09 01:06:30;;;;;;;;;;;2.70;90.90;;;;;;5093700;28;20003;-34
2023/03/09 01:08:56;;;;;;;;;;;2.70;90.90;;;;;;5093720;28;20379;-34
2023/03/09 01:11:21;;;;;;;;;;;2.70;90.90;;;;;;5093836;28;19923;-35
2023/03/09 01:13:47;;;;;;;;;;;2.60;91.10;;;;;;5093844;28;19912;-34
2023/03/09 01:16:13;;;;;;;;;;;2.60;90.80;;;;;;5093589;28;19919;-35
2023/03/09 01:18:38;;;;;;;;;;;2.60;90.80;;;;;;5092247;28;19960;-33
2023/03/09 01:21:04;;;;;;;;;;;2.60;90.90;;;;;;5093753;28;19923;-35
2023/03/09 01:23:30;;;;;;;;;;;2.60;90.80;;;;;;5093590;28;20291;-35
2023/03/09 01:25:56;;;;;;;;;;;2.60;90.80;;;;;;5092062;28;20005;-34
2023/03/09 01:28:21;;;;;;;;;;;2.60;90.80;;;;;;5092825;28;20053;-35
2023/03/09 01:30:47;;;;;;;;;;;2.60;90.90;;;;;;5092826;28;19923;-34
2023/03/09 01:33:12;;;;;;;;;;;2.70;90.70;;;;;;5093061;28;19913;-35
2023/03/09 01:35:38;;;;;;;;;;;2.60;90.70;;;;;;5092921;28;20252;-34
2023/03/09 01:38:04;;;;;;;;;;;2.70;90.80;;;;;;5092786;28;20257;-37
2023/03/09 01:40:29;;;;;;;;;;;2.70;90.90;;;;;;5092744;28;19919;-35
2023/03/09 01:42:56;;;;;;;;;;;2.80;90.90;;;;;;5091090;28;20433;-34
2023/03/09 01:45:22;;;;;;;;;;;2.70;90.70;;;;;;5092307;28;19925;-35
2023/03/09 01:47:47;;;;;;;;;;;2.70;90.60;;;;;;5092317;28;20039;-35
2023/03/09 01:50:14;;;;;;;;;;;2.80;90.80;;;;;;5092415;28;19916;-35
2023/03/09 01:52:42;;;;;;;;;;;2.80;90.80;;;;;;5092382;28;19954;-35
2023/03/09 01:55:10;;;;;;;;;;;2.80;90.70;;;;;;5092520;28;19922;-32
2023/03/09 01:57:41;;;;;;;;;;;2.80;90.60;;;;;;5092062;28;19913;-35
2023/03/09 02:00:11;;;;;;;;;;;2.80;90.60;;;;;;5090960;28;19989;-33
2023/03/09 02:02:38;;;;;;;;;;;2.80;90.60;;;;;;5092108;28;19919;-35
2023/03/09 02:05:05;;;;;;;;;;;2.80;90.60;;;;;;5092224;28;19951;-36
2023/03/09 02:07:34;;;;;;;;;;;2.70;90.50;;;;;;5091554;28;19924;-33
2023/03/09 02:09:59;;;;;;;;;;;2.70;90.60;;;;;;5091796;28;19945;-35
2023/03/09 02:12:26;;;;;;;;;;;2.70;90.70;;;;;;5091586;28;19985;-33
2023/03/09 02:14:51;;;;;;;;;;;2.80;90.70;;;;;;5091304;28;19916;-35
2023/03/09 02:17:17;;;;;;;;;;;2.80;90.50;;;;;;5091337;28;19916;-32
2023/03/09 02:19:43;;;;;;;;;;;2.80;90.50;;;;;;5091175;28;19912;-35
2023/03/09 02:22:08;;;;;;;;;;;2.70;90.50;;;;;;5091626;28;19916;-32
2023/03/09 02:24:51;;;;;;;;;;;2.80;90.50;;;;;;5091782;28;19919;-35
2023/03/09 02:27:20;;;;;;;;;;;2.70;90.70;;;;;;5091655;28;19926;-34
2023/03/09 02:29:46;;;;;;;;;;;2.70;90.50;;;;;;5091796;28;20073;-35
2023/03/09 02:32:11;;;;;;;;;;;2.80;90.50;;;;;;5091645;28;19948;-35
2023/03/09 02:34:37;;;;;;;;;;;2.80;90.60;;;;;;5091617;28;19927;-35
2023/03/09 02:37:02;;;;;;;;;;;2.80;90.60;;;;;;5091740;28;19962;-35
2023/03/09 02:39:36;;;;;;;;;;;2.80;90.40;;;;;;5091632;28;20015;-34
2023/03/09 02:42:01;;;;;;;;;;;2.80;90.50;;;;;;5091709;28;20285;-35
2023/03/09 02:44:27;;;;;;;;;;;2.70;90.50;;;;;;5091640;28;19916;-34
2023/03/09 02:46:52;;;;;;;;;;;2.70;90.40;;;;;;5091534;28;19912;-37
2023/03/09 02:49:18;;;;;;;;;;;2.70;90.40;;;;;;5091346;28;20363;-47
2023/03/09 02:51:44;;;;;;;;;;;2.70;90.70;;;;;;5091485;28;19912;-35
2023/03/09 02:54:09;;;;;;;;;;;2.70;90.50;;;;;;5091271;28;19919;-38
2023/03/09 02:56:35;;;;;;;;;;;2.70;90.40;;;;;;5091280;28;19937;-35
2023/03/09 02:59:03;;;;;;;;;;;2.70;90.50;;;;;;5091353;28;19913;-35
2023/03/09 03:01:29;;;;;;;;;;;2.70;90.50;;;;;;5091282;28;19938;-32
2023/03/09 03:03:54;;;;;;;;;;;2.80;90.50;;;;;;5091239;28;19912;-35
2023/03/09 03:06:20;;;;;;;;;;;2.70;90.40;;;;;;5091071;28;19912;-34
2023/03/09 03:08:45;;;;;;;;;;;2.80;90.50;;;;;;5090609;28;19912;-33
2023/03/09 03:11:11;;;;;;;;;;;2.80;90.50;;;;;;5091027;28;20438;-35
2023/03/09 03:13:37;;;;;;;;;;;2.80;90.40;;;;;;5091456;28;20006;-32
2023/03/09 03:16:02;;;;;;;;;;;2.80;90.50;;;;;;5091024;28;19916;-35
2023/03/09 03:18:28;;;;;;;;;;;2.80;90.40;;;;;;5091026;28;20156;-35
2023/03/09 03:20:54;;;;;;;;;;;2.80;90.40;;;;;;5090890;28;19912;-35
2023/03/09 03:23:19;;;;;;;;;;;2.90;90.40;;;;;;5090833;28;19965;-35
2023/03/09 03:25:45;;;;;;;;;;;2.90;90.50;;;;;;5090992;28;19920;-37
2023/03/09 03:28:10;;;;;;;;;;;2.80;90.40;;;;;;5090949;28;19920;-35
2023/03/09 03:30:36;;;;;;;;;;;2.90;90.40;;;;;;5090946;28;20330;-35
2023/03/09 03:33:01;;;;;;;;;;;2.90;90.40;;;;;;5090959;28;20043;-35
2023/03/09 03:35:27;;;;;;;;;;;3.00;90.50;;;;;;5090930;28;19913;-35
2023/03/09 03:37:53;;;;;;;;;;;3.00;90.40;;;;;;5090940;28;20264;-35
2023/03/09 03:40:19;;;;;;;;;;;3.00;90.30;;;;;;5089509;28;19923;-34
2023/03/09 03:42:45;;;;;;;;;;;3.00;90.30;;;;;;5090916;28;19926;-35
2023/03/09 03:45:10;;;;;;;;;;;3.00;90.30;;;;;;5090747;28;20323;-34
2023/03/09 03:47:36;;;;;;;;;;;3.00;90.30;;;;;;5091002;28;19912;-36
2023/03/09 03:50:01;;;;;;;;;;;3.00;90.30;;;;;;5090776;28;19920;-33
2023/03/09 03:52:27;;;;;;;;;;;2.90;90.20;;;;;;5090971;28;20026;-35
2023/03/09 03:54:52;;;;;;;;;;;2.90;90.30;;;;;;5091135;28;19981;-35
2023/03/09 03:57:18;;;;;;;;;;;2.90;90.20;;;;;;5090596;28;19916;-34
2023/03/09 03:59:43;;;;;;;;;;;2.90;90.20;;;;;;5090732;28;20390;-35
2023/03/09 04:02:09;;;;;;;;;;;2.90;90.30;;;;;;5090596;28;19918;-35
2023/03/09 04:04:34;;;;;;;;;;;2.90;90.30;;;;;;5090495;28;20390;-37
2023/03/09 04:07:00;;;;;;;;;;;2.90;90.30;;;;;;5090599;28;19920;-35
2023/03/09 04:09:25;;;;;;;;;;;3.00;90.30;;;;;;5090401;28;20430;-35
2023/03/09 04:11:51;;;;;;;;;;;3.00;90.30;;;;;;5090675;28;19912;-35
2023/03/09 04:14:16;;;;;;;;;;;2.90;90.30;;;;;;5091014;28;20250;-35
2023/03/09 04:16:42;;;;;;;;;;;3.00;90.30;;;;;;5090605;28;19916;-35
2023/03/09 04:19:07;;;;;;;;;;;3.00;90.30;;;;;;5090802;28;20493;-32
2023/03/09 04:21:33;;;;;;;;;;;3.00;90.10;;;;;;5092513;28;19912;-35
2023/03/09 04:23:58;;;;;;;;;;;3.00;90.10;;;;;;5094664;28;19916;-32
2023/03/09 04:26:24;;;;;;;;;;;2.90;90.20;;;;;;5094392;28;20268;-35
2023/03/09 04:28:49;;;;;;;;;;;3.00;90.20;;;;;;5094591;28;19912;-35
2023/03/09 04:31:15;;;;;;;;;;;3.00;90.30;;;;;;5094489;28;19966;-35
2023/03/09 04:33:43;;;;;;;;;;;3.00;90.20;;;;;;5094403;28;19918;-35
2023/03/09 04:36:10;;;;;;;;;;;3.00;90.20;;;;;;5094684;28;19916;-35
2023/03/09 04:38:35;;;;;;;;;;;3.00;90.20;;;;;;5094363;28;19962;-36
2023/03/09 04:41:01;;;;;;;;;;;3.00;90.20;;;;;;5094322;28;19920;-35
2023/03/09 04:43:26;;;;;;;;;;;3.00;90.10;;;;;;5094223;28;19908;-37
2023/03/09 04:45:52;;;;;;;;;;;3.00;90.10;;;;;;5094264;28;19915;-35
2023/03/09 04:48:17;;;;;;;;;;;2.90;90.20;;;;;;5094270;28;19916;-32
2023/03/09 04:50:43;;;;;;;;;;;3.00;90.20;;;;;;5094063;28;20363;-35
2023/03/09 04:53:09;;;;;;;;;;;3.00;90.10;;;;;;5094287;28;19947;-34
2023/03/09 04:55:36;;;;;;;;;;;3.00;90.10;;;;;;5094417;28;20008;-35
2023/03/09 04:58:02;;;;;;;;;;;3.00;90.10;;;;;;5094095;28;20021;-35
2023/03/09 05:00:27;;;;;;;;;;;3.00;90.20;;;;;;5094341;28;19944;-34
2023/03/09 05:02:53;;;;;;;;;;;3.00;90.20;;;;;;5093834;28;19908;-35
2023/03/09 05:05:18;;;;;;;;;;;3.00;90.20;;;;;;5094005;28;20464;-34
2023/03/09 05:07:44;;;;;;;;;;;3.00;90.20;;;;;;5093866;28;19939;-35
2023/03/09 05:10:10;;;;;;;;;;;3.10;90.10;;;;;;5093641;28;19916;-33
2023/03/09 05:12:35;;;;;;;;;;;3.10;90.10;;;;;;5093651;28;20462;-33
2023/03/09 05:15:01;;;;;;;;;;;3.10;90.10;;;;;;5093642;28;19915;-30
2023/03/09 05:17:27;;;;;;;;;;;3.10;90.10;;;;;;5093439;28;19908;-34
2023/03/09 05:19:53;;;;;;;;;;;3.20;90.10;;;;;;5093504;28;19908;-34
2023/03/09 05:22:18;;;;;;;;;;;3.20;90.10;;;;;;5093284;28;20307;-33
2023/03/09 05:24:44;;;;;;;;;;;3.20;90.10;;;;;;5093775;28;19908;-37
2023/03/09 05:27:09;;;;;;;;;;;3.30;90.10;;;;;;5093389;28;19920;-34
2023/03/09 05:29:37;;;;;;;;;;;3.20;90.00;;;;;;5092779;28;21222;-34
2023/03/09 05:32:02;;;;;;;;;;;3.30;90.10;;;;;;5092784;28;19955;-33
2023/03/09 05:34:28;;;;;;;;;;;3.30;90.10;;;;;;5093178;28;20462;-35
2023/03/09 05:36:53;;;;;;;;;;;3.30;90.10;;;;;;5093108;28;19977;-34
2023/03/09 05:39:19;;;;;;;;;;;3.30;90.00;;;;;;5093328;28;20002;-34
2023/03/09 05:41:44;;;;;;;;;;;3.30;90.00;;;;;;5093097;28;19999;-34
2023/03/09 05:44:10;;;;;;;;;;;3.30;90.00;;;;;;5093075;28;19912;-33
2023/03/09 05:46:35;;;;;;;;;;;3.30;90.00;;;;;;5092971;28;19950;-34
2023/03/09 05:49:01;;;;;;;;;;;3.30;90.00;;;;;;5093086;28;19912;-34
2023/03/09 05:51:26;;;;;;;;;;;3.30;90.00;;;;;;5092977;28;19916;-34
2023/03/09 05:53:52;;;;;;;;;;;3.30;90.00;;;;;;5092878;28;19959;-33
2023/03/09 05:56:17;;;;;;;;;;;3.30;90.00;;;;;;5092747;28;19912;-31
2023/03/09 05:58:43;;;;;;;;;;;3.30;90.00;;;;;;5092681;28;19919;-34
2023/03/09 06:01:16;;;;;;;;;;;3.30;90.00;;;;;;5092941;28;19955;-32
2023/03/09 06:03:41;;;;;;;;;;;3.30;89.90;;;;;;5092508;28;20402;-34
2023/03/09 06:06:07;;;;;;;;;;;3.20;89.90;;;;;;5092629;28;19918;-34
2023/03/09 06:08:32;;;;;;;;;;;3.20;90.00;;;;;;5092406;28;20433;-34
2023/03/09 06:10:59;;;;;;;;;;;3.20;90.00;;;;;;5092594;28;19956;-33
2023/03/09 06:13:24;;;;;;;;;;;3.20;89.90;;;;;;5092397;28;19999;-34
2023/03/09 06:15:50;;;;;;;;;;;3.20;89.90;;;;;;5092427;28;20020;-34
2023/03/09 06:18:17;;;;;;;;;;;3.10;89.60;;;;;;5092344;28;19916;-34
2023/03/09 06:20:43;;;;;;;;;;;3.10;89.80;;;;;;5092079;28;19934;-34
2023/03/09 06:23:08;;;;;;;;;;;3.10;89.90;;;;;;5092348;28;19916;-34
2023/03/09 06:25:35;;;;;;;;;;;3.10;90.00;;;;;;5092066;28;20011;-34
2023/03/09 06:28:01;;;;;;;;;;;3.10;89.90;;;;;;5092467;28;19916;-32
2023/03/09 06:30:28;;;;;;;;;;;3.20;90.00;;;;;;5092104;28;19920;-34
2023/03/09 06:32:54;;;;;;;;;;;3.20;90.00;;;;;;5092201;28;19912;-34
2023/03/09 06:35:19;;;;;;;;;;;3.20;89.80;;;;;;5092195;28;19974;-33
2023/03/09 06:37:48;;;;;;;;;;;3.20;89.70;;;;;;5092045;28;19912;-34
2023/03/09 06:40:13;;;;;;;;;;;3.20;89.80;;;;;;5091846;28;19958;-33
2023/03/09 06:42:40;;;;;;;;;;;3.20;89.90;;;;;;5091802;28;19955;-33
2023/03/09 06:45:06;;;;;;;;;;;3.30;89.90;;;;;;5091293;28;19920;-37
2023/03/09 06:47:31;;;;;;;;;;;3.30;89.80;;;;;;5091855;28;19912;-34
2023/03/09 06:49:56;;;;;;;;;;;3.40;89.70;;;;;;5091530;28;20064;-35
2023/03/09 06:52:22;;;;;;;;;;;3.40;89.70;;;;;;5091793;28;19912;-31
2023/03/09 06:54:48;;;;;;;;;;;3.40;89.60;;;;;;5092059;28;20240;-33
2023/03/09 06:57:13;;;;;;;;;;;3.40;89.60;;;;;;5091810;28;19924;-35
2023/03/09 06:59:39;;;;;;;;;;;3.40;89.50;;;;;;5091932;28;19948;-36
2023/03/09 07:02:05;;;;;;;;;;;3.50;89.50;;;;;;5092003;28;19912;-35
2023/03/09 07:04:31;;;;;;;;;;;3.40;89.40;;;;;;5091835;28;20002;-35
2023/03/09 07:06:57;;;;;;;;;;;3.40;89.50;;;;;;5091777;28;19966;-35
2023/03/09 07:09:22;;;;;;;;;;;3.50;89.60;;;;;;5091543;28;19918;-34
2023/03/09 07:11:48;;;;;;;;;;;3.50;89.40;;;;;;5091733;28;20036;-35
2023/03/09 07:14:14;;;;;;;;;;;3.50;89.40;;;;;;5091642;28;20333;-34
2023/03/09 07:16:39;;;;;;;;;;;3.50;89.50;;;;;;5091622;28;19937;-32
2023/03/09 07:19:05;;;;;;;;;;;3.50;89.50;;;;;;5091582;28;20056;-35
2023/03/09 07:21:30;;;;;;;;;;;3.50;89.50;;;;;;5091362;28;19923;-32
2023/03/09 07:23:56;;;;;;;;;;;3.60;89.60;;;;;;5091539;28;19923;-41
2023/03/09 07:26:21;;;;;;;;;;;3.60;89.50;;;;;;5091468;28;20340;-34
2023/03/09 07:28:47;;;;;;;;;;;3.60;89.30;;;;;;5091369;28;20236;-35
2023/03/09 07:31:13;;;;;;;;;;;3.60;89.20;;;;;;5091371;28;20295;-34
2023/03/09 07:33:39;;;;;;;;;;;3.60;89.10;;;;;;5091696;28;19923;-32
2023/03/09 07:36:05;;;;;;;;;;;3.50;89.00;;;;;;5091435;28;19958;-33
2023/03/09 07:38:31;;;;;;;;;;;3.50;89.20;;;;;;5091412;28;19920;-31
2023/03/09 07:40:57;;;;;;;;;;;3.60;89.40;;;;;;5091553;28;19912;-36
2023/03/09 07:43:22;;;;;;;;;;;3.60;89.30;;;;;;5091251;28;19912;-35
2023/03/09 07:45:48;;;;;;;;;;;3.70;89.30;;;;;;5091297;28;19990;-35
2023/03/09 07:48:13;;;;;;;;;;;3.70;89.20;;;;;;5091284;28;19965;-34
2023/03/09 07:50:39;;;;;;;;;;;3.80;89.10;;;;;;5091292;28;20587;-34
2023/03/09 07:53:04;;;;;;;;;;;3.80;89.10;;;;;;5091124;28;19912;-35
2023/03/09 07:55:34;;;;;;;;;;;3.80;89.00;;;;;;5093085;28;20254;-34
2023/03/09 07:58:00;;;;;;;;;;;3.80;88.80;;;;;;5095301;28;20399;-34
2023/03/09 08:00:27;;;;;;;;;;;3.80;88.90;;;;;;5095156;28;20371;-35
2023/03/09 08:02:53;;;;;;;;;;;3.80;89.10;;;;;;5094999;28;19919;-34
2023/03/09 08:05:19;;;;;;;;;;;3.90;89.10;;;;;;5095195;28;19916;-34
2023/03/09 08:07:46;;;;;;;;;;;4.00;89.10;;;;;;5094833;28;19912;-34
2023/03/09 08:10:13;;;;;;;;;;;4.00;89.00;;;;;;5093257;28;19916;-34
2023/03/09 08:12:39;;;;;;;;;;;4.00;88.80;;;;;;5095491;28;20380;-32
2023/03/09 08:15:05;;;;;;;;;;;4.10;88.80;;;;;;5095078;28;19998;-34
2023/03/09 08:17:30;;;;;;;;;;;4.20;88.70;;;;;;5094812;28;19916;-35
2023/03/09 08:19:56;;;;;;;;;;;4.10;88.50;;;;;;5094799;28;19915;-35
2023/03/09 08:22:22;;;;;;;;;;;4.10;88.50;;;;;;5094383;28;19912;-34
2023/03/09 08:24:47;;;;;;;;;;;4.10;88.50;;;;;;5094654;28;20217;-35
2023/03/09 08:27:13;;;;;;;;;;;4.10;88.50;;;;;;5094525;28;19916;-30
2023/03/09 08:29:38;;;;;;;;;;;4.20;88.70;;;;;;5094547;28;19923;-35
2023/03/09 08:32:05;;;;;;;;;;;4.20;88.70;;;;;;5094607;28;20289;-35
2023/03/09 08:34:30;;;;;;;;;;;4.30;88.60;;;;;;5093208;28;20070;-33
2023/03/09 08:36:56;;;;;;;;;;;4.30;88.50;;;;;;5094796;28;20349;-34
2023/03/09 08:39:22;;;;;;;;;;;4.40;88.50;;;;;;5094196;28;19991;-34
2023/03/09 08:41:47;;;;;;;;;;;4.50;88.40;;;;;;5094376;28;20394;-34
2023/03/09 08:44:13;;;;;;;;;;;4.60;88.40;;;;;;5094239;28;19948;-33
2023/03/09 08:46:38;;;;;;;;;;;4.60;88.30;;;;;;5094515;28;19916;-36
2023/03/09 08:49:03;;;;;;;;;;;4.70;88.20;;;;;;5094515;28;19912;-35
2023/03/09 08:51:29;;;;;;;;;;;4.70;88.10;;;;;;5094272;28;19916;-36
2023/03/09 08:53:55;;;;;;;;;;;4.70;87.90;;;;;;5094203;28;19912;-34
2023/03/09 08:56:21;;;;;;;;;;;4.70;87.80;;;;;;5093983;28;20406;-34
2023/03/09 08:58:47;;;;;;;;;;;4.60;88.00;;;;;;5094155;28;19947;-34
2023/03/09 09:01:12;;;;;;;;;;;4.70;88.10;;;;;;5094019;28;19912;-35
2023/03/09 09:03:38;;;;;;;;;;;4.70;88.00;;;;;;5094076;28;20112;-36
2023/03/09 09:06:11;;;;;;;;;;;4.80;88.00;;;;;;5093480;28;19962;-33
2023/03/09 09:08:37;;;;;;;;;;;4.90;87.90;;;;;;5093584;28;19912;-34
2023/03/09 09:11:10;;;;;;;;;;;4.90;87.90;;;;;;5093860;28;19916;-32
2023/03/09 09:13:36;;;;;;;;;;;4.90;87.70;;;;;;5092587;28;19912;-34
2023/03/09 09:16:05;;;;;;;;;;;4.90;87.70;;;;;;5093838;28;20293;-33
2023/03/09 09:18:31;;;;;;;;;;;4.90;87.80;;;;;;5093736;28;19912;-33
2023/03/09 09:20:57;;;;;;;;;;;4.90;87.70;;;;;;5093518;28;19935;-36
2023/03/09 09:23:23;;;;;;;;;;;4.90;87.80;;;;;;5093727;28;19969;-32
2023/03/09 09:25:55;;;;;;;;;;;5.00;87.80;;;;;;5093649;28;19919;-34
2023/03/09 09:28:21;;;;;;;;;;;5.00;87.70;;;;;;5093472;28;19916;-35
2023/03/09 09:31:01;;;;;;;;;;;5.00;87.70;;;;;;5093579;28;20389;-37
2023/03/09 09:33:26;;;;;;;;;;;5.00;87.70;;;;;;5093352;28;19912;-34
2023/03/09 09:35:59;;;;;;;;;;;5.10;87.70;;;;;;5093308;28;20248;-34
2023/03/09 09:38:26;;;;;;;;;;;5.10;87.50;;;;;;5093309;28;19912;-34
2023/03/09 09:40:52;;;;;;;;;;;5.10;87.50;;;;;;5093404;28;19986;-33
2023/03/09 09:43:18;;;;;;;;;;;5.10;87.50;;;;;;5093207;28;19912;-34
2023/03/09 09:45:44;;;;;;;;;;;5.10;87.50;;;;;;5093009;28;19961;-33
2023/03/09 09:48:17;;;;;;;;;;;5.10;87.40;;;;;;5093220;28;20295;-34
2023/03/09 09:50:45;;;;;;;;;;;5.10;87.50;;;;;;5093074;28;20068;-33
2023/03/09 09:53:11;;;;;;;;;;;5.10;87.30;;;;;;5093065;28;19920;-33
2023/03/09 09:55:39;;;;;;;;;;;5.10;87.30;;;;;;5092860;28;19977;-34
2023/03/09 09:58:43;;;;;;;;;;;5.00;86.90;;;;;;5092850;28;19915;-34
2023/03/09 10:01:19;;;;;;;;;;;5.00;87.20;;;;;;5050093;28;20411;-34
2023/03/09 10:03:47;;;;;;;;;;;5.00;87.10;;;;;;5050358;28;20371;-33
2023/03/09 10:06:16;;;;;;;;;;;5.00;87.10;;;;;;5073632;28;19912;-30
2023/03/09 10:08:55;;;;;;;;;;;5.10;87.20;;;;;;5092756;28;19939;-33
2023/03/09 10:11:26;;;;;;;;;;;5.10;87.20;;;;;;5092623;28;19939;-33
2023/03/09 10:13:59;;;;;;;;;;;5.20;87.20;;;;;;5092817;28;19912;-32
2023/03/09 10:16:36;;;;;;;;;;;5.30;87.10;;;;;;5092834;28;19912;-36
2023/03/09 10:19:04;;;;;;;;;;;5.30;86.80;;;;;;5092818;28;20070;-34
2023/03/09 10:21:46;;;;;;;;;;;5.30;86.80;;;;;;5092528;28;20371;-35
2023/03/09 10:24:22;;;;;;;;;;;5.40;86.80;;;;;;5092715;28;19963;-33
2023/03/09 10:27:05;;;;;;;;;;;5.40;86.70;;;;;;5092344;28;19912;-34
2023/03/09 10:29:30;;;;;;;;;;;5.50;86.70;;;;;;5092469;28;19912;-35
2023/03/09 10:32:01;;;;;;;;;;;5.60;86.70;;;;;;5092551;28;20393;-35
2023/03/09 10:34:27;;;;;;;;;;;5.60;86.70;;;;;;5092609;28;19947;-34
2023/03/09 10:36:58;;;;;;;;;;;5.70;86.50;;;;;;5092497;28;19912;-33
2023/03/09 10:39:24;;;;;;;;;;;5.70;86.30;;;;;;5092335;28;19919;-35
2023/03/09 10:41:54;;;;;;;;;;;5.80;86.30;;;;;;5092382;28;19912;-36
2023/03/09 10:44:20;;;;;;;;;;;5.80;86.30;;;;;;5092261;28;19965;-35
2023/03/09 10:46:54;;;;;;;;;;;5.80;86.30;;;;;;5092432;28;19912;-34
2023/03/09 10:49:20;;;;;;;;;;;5.80;86.30;;;;;;5092106;28;19912;-34
2023/03/09 10:51:58;;;;;;;;;;;5.80;86.10;;;;;;5092043;28;19916;-31
2023/03/09 10:54:29;;;;;;;;;;;5.80;86.20;;;;;;5092310;28;19918;-35
2023/03/09 10:56:55;;;;;;;;;;;5.90;86.30;;;;;;5092073;28;19919;-34
2023/03/09 10:59:21;;;;;;;;;;;5.80;86.10;;;;;;5092571;28;19912;-35
2023/03/09 11:01:48;;;;;;;;;;;5.80;86.10;;;;;;5092078;28;19912;-35
2023/03/09 11:04:22;;;;;;;;;;;5.80;86.20;;;;;;5091802;28;20400;-34
2023/03/09 11:07:02;;;;;;;;;;;5.80;86.10;;;;;;5091568;28;19912;-35
2023/03/09 11:09:42;;;;;;;;;;;5.70;86.10;;;;;;5091671;28;19934;-34
2023/03/09 11:12:08;;;;;;;;;;;5.70;86.00;;;;;;5091888;28;20003;-34
2023/03/09 11:14:40;;;;;;;;;;;5.60;86.20;;;;;;5091645;28;19947;-39
2023/03/09 11:17:23;;;;;;;;;;;5.60;86.40;;;;;;5091648;28;19935;-33
2023/03/09 11:19:49;;;;;;;;;;;5.60;86.50;;;;;;5091592;28;19969;-35
2023/03/09 11:22:15;;;;;;;;;;;5.60;86.40;;;;;;5091494;28;19916;-34
2023/03/09 11:24:44;;;;;;;;;;;5.60;86.40;;;;;;5091511;28;19920;-35
2023/03/09 11:27:18;;;;;;;;;;;5.70;86.50;;;;;;5091894;28;20355;-34
2023/03/09 11:29:57;;;;;;;;;;;5.70;86.30;;;;;;5090930;28;20010;-34
2023/03/09 11:32:23;;;;;;;;;;;5.70;86.20;;;;;;5091418;28;20007;-33
2023/03/09 11:34:49;;;;;;;;;;;5.70;86.20;;;;;;5091551;28;19927;-34
2023/03/09 11:37:50;;;;;;;;;;;5.80;86.10;;;;;;5091298;28;19916;-34
2023/03/09 11:40:17;;;;;;;;;;;5.80;86.10;;;;;;5048777;28;19912;-34
2023/03/09 11:42:45;;;;;;;;;;;5.80;85.90;;;;;;5082883;28;19919;-34
2023/03/09 11:45:21;;;;;;;;;;;5.90;86.10;;;;;;5091296;28;19957;-32
2023/03/09 11:47:50;;;;;;;;;;;5.90;86.00;;;;;;5091570;28;20334;-34
2023/03/09 11:50:20;;;;;;;;;;;5.90;85.90;;;;;;5091243;28;20375;-34
2023/03/09 11:52:49;;;;;;;;;;;5.90;85.80;;;;;;5091318;28;19912;-35
2023/03/09 11:55:17;;;;;;;;;;;5.90;86.00;;;;;;5091486;28;20383;-34
2023/03/09 11:57:47;;;;;;;;;;;5.90;86.00;;;;;;5091309;28;19912;-34
2023/03/09 12:00:14;;;;;;;;;;;5.80;86.00;;;;;;5091345;28;19908;-34
2023/03/09 12:02:51;;;;;;;;;;;5.80;86.00;;;;;;5091374;28;19909;-34
2023/03/09 12:05:17;;;;;;;;;;;5.80;86.10;;;;;;5091252;28;20045;-33
2023/03/09 12:07:52;;;;;;;;;;;5.80;86.20;;;;;;5091215;28;19992;-33
2023/03/09 12:10:25;;;;;;;;;;;5.80;86.20;;;;;;5091039;28;19912;-35
2023/03/09 12:13:17;;;;;;;;;;;5.90;86.20;;;;;;5091261;28;19915;-35
2023/03/09 12:15:52;;;;;;;;;;;5.80;86.00;;;;;;5074849;28;20387;-34
2023/03/09 12:18:19;;;;;;;;;;;5.80;86.10;;;;;;5089850;28;19970;-36
2023/03/09 12:21:14;;;;;;;;;;;5.80;86.20;;;;;;5091579;28;19999;-34
2023/03/09 12:23:41;;;;;;;;;;;5.70;86.20;;;;;;5081998;28;19915;-34
2023/03/09 12:26:20;;;;;;;;;;;5.80;86.30;;;;;;5091111;28;19957;-33
2023/03/09 12:29:01;;;;;;;;;;;5.70;86.20;;;;;;5091100;28;19916;-33
2023/03/09 12:31:31;;;;;;;;;;;5.70;86.30;;;;;;5091168;28;19916;-32
2023/03/09 12:33:59;;;;;;;;;;;5.70;86.30;;;;;;5090861;28;19912;-34
2023/03/09 12:36:32;;;;;;;;;;;5.70;86.30;;;;;;5090775;28;20398;-31
2023/03/09 12:39:16;;;;;;;;;;;5.60;86.30;;;;;;5091046;28;19915;-35
2023/03/09 12:41:54;;;;;;;;;;;5.60;86.40;;;;;;5091659;28;19912;-33
2023/03/09 12:44:38;;;;;;;;;;;5.60;86.40;;;;;;5094598;28;19916;-34
2023/03/09 12:47:04;;;;;;;;;;;5.50;86.40;;;;;;5094840;28;19908;-32
2023/03/09 12:49:32;;;;;;;;;;;5.50;86.50;;;;;;5094374;28;20271;-35
2023/03/09 12:52:03;;;;;;;;;;;5.50;86.60;;;;;;5094439;28;19912;-34
2023/03/09 12:54:28;;;;;;;;;;;5.50;86.60;;;;;;5094401;28;19919;-35
2023/03/09 12:56:54;;;;;;;;;;;5.50;86.60;;;;;;5094391;28;19908;-35
2023/03/09 12:59:28;;;;;;;;;;;5.50;86.60;;;;;;5094511;28;19915;-37
2023/03/09 13:01:53;;;;;;;;;;;5.40;86.70;;;;;;5094451;28;19930;-33
2023/03/09 13:04:22;;;;;;;;;;;5.50;86.80;;;;;;5094596;28;19924;-35
2023/03/09 13:06:52;;;;;;;;;;;5.50;86.80;;;;;;5094097;28;19908;-35
2023/03/09 13:09:18;;;;;;;;;;;5.50;86.80;;;;;;5094047;28;19999;-35
2023/03/09 13:11:58;;;;;;;;;;;5.50;86.70;;;;;;5094094;28;20358;-34
2023/03/09 13:14:26;;;;;;;;;;;5.50;86.60;;;;;;5094085;28;20368;-34
2023/03/09 13:16:53;;;;;;;;;;;5.50;86.70;;;;;;5094384;28;19987;-36
2023/03/09 13:19:18;;;;;;;;;;;5.50;86.80;;;;;;5093877;28;19959;-34
2023/03/09 13:21:56;;;;;;;;;;;5.40;86.80;;;;;;5093961;28;19955;-35
2023/03/09 13:24:22;;;;;;;;;;;5.50;86.80;;;;;;5094199;28;19908;-34
2023/03/09 13:26:56;;;;;;;;;;;5.50;86.60;;;;;;5093676;28;19919;-31
2023/03/09 13:29:23;;;;;;;;;;;5.50;86.70;;;;;;5093761;28;19998;-35
2023/03/09 13:31:49;;;;;;;;;;;5.50;86.70;;;;;;5093603;28;19916;-35
2023/03/09 13:34:17;;;;;;;;;;;5.50;86.70;;;;;;5093669;28;19908;-36
2023/03/09 13:36:42;;;;;;;;;;;5.50;86.60;;;;;;5093566;28;19998;-34
2023/03/09 13:39:14;;;;;;;;;;;5.50;86.70;;;;;;5093619;28;19948;-34
2023/03/09 13:41:40;;;;;;;;;;;5.50;86.70;;;;;;5093494;28;19908;-35
2023/03/09 13:44:13;;;;;;;;;;;5.50;86.60;;;;;;5093688;28;19935;-35
2023/03/09 13:46:40;;;;;;;;;;;5.50;86.60;;;;;;5093379;28;20379;-34
2023/03/09 13:49:07;;;;;;;;;;;5.50;86.60;;;;;;5093658;28;20280;-33
2023/03/09 13:51:41;;;;;;;;;;;5.50;86.60;;;;;;5093314;28;19922;-34
2023/03/09 13:54:21;;;;;;;;;;;5.40;86.60;;;;;;5092907;28;19915;-35
2023/03/09 13:56:56;;;;;;;;;;;5.40;86.80;;;;;;5093246;28;19916;-36
2023/03/09 13:59:22;;;;;;;;;;;5.30;86.90;;;;;;5093093;28;20002;-34
2023/03/09 14:01:47;;;;;;;;;;;5.30;86.90;;;;;;5093182;28;19951;-33
2023/03/09 14:04:14;;;;;;;;;;;5.30;86.90;;;;;;5093392;28;19912;-34
2023/03/09 14:06:40;;;;;;;;;;;5.30;86.90;;;;;;5093111;28;20258;-34
2023/03/09 14:09:28;;;;;;;;;;;5.30;87.00;;;;;;5093027;28;19915;-32
2023/03/09 14:11:53;;;;;;;;;;;5.30;87.10;;;;;;5092782;28;19923;-33
2023/03/09 14:14:21;;;;;;;;;;;5.30;87.10;;;;;;5092659;28;20291;-34
2023/03/09 14:16:48;;;;;;;;;;;5.30;87.10;;;;;;5092703;28;19999;-31
2023/03/09 14:19:40;;;;;;;;;;;5.20;87.10;;;;;;5092602;28;19908;-33
2023/03/09 14:22:16;;;;;;;;;;;5.20;87.20;;;;;;5090249;28;19908;-34
2023/03/09 14:24:42;;;;;;;;;;;5.20;87.30;;;;;;5092725;28;19914;-34
2023/03/09 14:27:30;;;;;;;;;;;5.10;87.30;;;;;;5092466;28;20006;-33
2023/03/09 14:29:56;;;;;;;;;;;5.10;87.30;;;;;;5086702;28;20282;-32
2023/03/09 14:32:27;;;;;;;;;;;5.00;87.30;;;;;;5092504;28;20003;-33
2023/03/09 14:34:53;;;;;;;;;;;5.00;87.50;;;;;;5092538;28;19908;-33